Time;durP1;ratioP1;P1;durP2;ratioP2;P2;SDS_P1;SDS_P2;PMS_P1;PMS_P2;Temp;Humidity;BMP_temperature;BMP_pressure;BME280_temperature;BME280_humidity;BME280_pressure;Samples;Min_cycle;Max_cycle;Signal;HPM_P1;HPM_P2
2022/05/03 00:00:46;;;;;;;10.90;4.90;;;6.70;99.90;;;;;;5023528;28;20932;-65
2022/05/03 00:03:22;;;;;;;5.20;4.00;;;6.70;99.90;;;;;;5037056;28;20216;-64
2022/05/03 00:06:08;;;;;;;7.50;4.05;;;6.80;99.90;;;;;;5040323;28;20080;-63
2022/05/03 00:08:48;;;;;;;7.18;3.80;;;6.90;99.90;;;;;;5031195;28;20128;-64
2022/05/03 00:11:31;;;;;;;4.30;2.80;;;6.90;99.90;;;;;;5035319;28;20048;-64
2022/05/03 00:14:22;;;;;;;3.95;3.08;;;6.90;99.90;;;;;;5029362;28;20073;-66
2022/05/03 00:16:52;;;;;;;7.57;3.30;;;6.90;99.90;;;;;;5028878;28;20048;-65
2022/05/03 00:19:19;;;;;;;6.68;3.72;;;7.00;99.90;;;;;;5034569;28;20054;-64
2022/05/03 00:21:47;;;;;;;8.60;3.90;;;7.00;99.90;;;;;;5031314;28;20065;-63
2022/05/03 00:24:15;;;;;;;5.88;3.13;;;7.00;99.90;;;;;;5024857;28;20076;-66
2022/05/03 00:26:42;;;;;;;5.07;3.65;;;7.10;99.90;;;;;;5043146;28;20099;-64
2022/05/03 00:29:11;;;;;;;5.93;4.30;;;7.10;99.90;;;;;;5029976;28;20126;-65
2022/05/03 00:31:38;;;;;;;8.30;4.85;;;7.10;99.90;;;;;;5030445;28;20135;-68
2022/05/03 00:34:06;;;;;;;4.32;3.78;;;7.10;99.90;;;;;;5031173;28;20045;-66
2022/05/03 00:36:33;;;;;;;7.45;4.65;;;7.20;99.90;;;;;;5033055;28;20037;-63
2022/05/03 00:39:00;;;;;;;6.47;5.72;;;7.10;99.90;;;;;;5041720;28;20049;-67
2022/05/03 00:41:45;;;;;;;6.95;4.35;;;7.20;99.90;;;;;;5030926;28;20818;-62
2022/05/03 00:47:24;;;;;;;6.07;4.35;;;7.10;99.90;;;;;;5034128;28;20152;-64
2022/05/03 00:50:10;;;;;;;9.23;5.47;;;7.10;99.90;;;;;;5019852;28;20076;-64
2022/05/03 00:53:16;;;;;;;7.13;4.25;;;7.10;99.90;;;;;;5035343;28;20041;-64
2022/05/03 00:56:04;;;;;;;5.45;4.28;;;7.10;99.90;;;;;;5034271;28;20124;-63
2022/05/03 00:58:36;;;;;;;8.30;4.97;;;7.10;99.90;;;;;;5034842;28;20053;-65
2022/05/03 01:01:16;;;;;;;8.65;5.25;;;7.00;99.90;;;;;;5033460;28;20118;-64
2022/05/03 01:03:46;;;;;;;4.95;4.28;;;7.00;99.90;;;;;;5036487;28;20041;-64
2022/05/03 01:06:20;;;;;;;7.77;4.80;;;7.00;99.90;;;;;;5036905;28;20769;-65
2022/05/03 01:08:50;;;;;;;10.05;4.95;;;7.00;99.90;;;;;;5046004;28;20057;-63
2022/05/03 01:11:33;;;;;;;9.30;4.60;;;7.00;99.90;;;;;;5030355;28;20129;-64
2022/05/03 01:14:21;;;;;;;10.10;5.80;;;7.00;99.90;;;;;;5046954;28;20144;-63
2022/05/03 01:17:05;;;;;;;8.18;3.83;;;7.00;99.90;;;;;;5029269;28;20099;-62
2022/05/03 01:20:02;;;;;;;5.95;4.70;;;7.00;99.90;;;;;;5034876;28;20139;-62
2022/05/03 01:22:44;;;;;;;10.07;4.68;;;7.00;99.90;;;;;;5037512;28;20037;-63
2022/05/03 01:25:29;;;;;;;7.07;4.90;;;7.00;99.90;;;;;;5035366;28;20101;-66
2022/05/03 01:28:14;;;;;;;6.80;4.97;;;7.00;99.90;;;;;;5033210;28;20045;-64
2022/05/03 01:30:47;;;;;;;9.65;4.82;;;7.00;99.90;;;;;;5036112;28;20041;-69
2022/05/03 01:33:19;;;;;;;12.40;4.85;;;7.00;99.90;;;;;;5026215;28;20036;-65
2022/05/03 01:35:51;;;;;;;7.80;4.45;;;7.00;99.90;;;;;;5030837;28;20045;-65
2022/05/03 01:38:53;;;;;;;4.55;3.97;;;7.00;99.90;;;;;;5035881;28;20819;-68
2022/05/03 01:41:41;;;;;;;8.52;5.10;;;7.00;99.90;;;;;;5030129;28;20033;-63
2022/05/03 01:44:13;;;;;;;6.95;3.83;;;7.00;99.90;;;;;;5030769;28;20060;-65
2022/05/03 01:46:40;;;;;;;7.10;6.18;;;7.00;99.90;;;;;;5032952;28;20064;-67
2022/05/03 01:52:52;;;;;;;9.30;5.50;;;6.90;99.90;;;;;;5027779;28;20053;-66
2022/05/03 01:55:46;;;;;;;7.25;5.10;;;6.90;99.90;;;;;;5006095;28;20562;-65
2022/05/03 01:58:34;;;;;;;7.22;4.63;;;6.90;99.90;;;;;;5014661;28;20623;-68
2022/05/03 02:01:22;;;;;;;7.80;4.03;;;6.90;99.90;;;;;;5008884;28;20042;-69
2022/05/03 02:03:53;;;;;;;9.63;4.53;;;6.80;99.90;;;;;;5027723;28;20198;-64
2022/05/03 02:06:44;;;;;;;7.68;3.78;;;6.80;99.90;;;;;;5039097;28;20113;-62
2022/05/03 02:09:11;;;;;;;8.10;3.88;;;6.80;99.90;;;;;;5038214;28;20071;-64
2022/05/03 02:11:54;;;;;;;5.97;3.28;;;6.80;99.90;;;;;;5038503;28;20138;-67
2022/05/03 02:14:44;;;;;;;7.80;4.53;;;6.80;99.90;;;;;;5027599;28;20049;-67
2022/05/03 02:17:30;;;;;;;5.20;3.10;;;6.90;99.90;;;;;;5033426;28;20091;-64
2022/05/03 02:20:31;;;;;;;4.03;2.67;;;6.80;99.90;;;;;;5031918;28;20045;-63
2022/05/03 02:23:33;;;;;;;3.97;2.80;;;6.80;99.90;;;;;;5034035;28;20510;-63
2022/05/03 02:26:07;;;;;;;4.78;2.53;;;6.80;99.90;;;;;;5014005;28;20048;-64
2022/05/03 02:28:53;;;;;;;5.20;2.33;;;6.80;99.90;;;;;;5036381;28;20621;-65
2022/05/03 02:31:57;;;;;;;7.05;2.90;;;6.80;99.90;;;;;;5026787;28;20045;-65
2022/05/03 02:34:48;;;;;;;2.13;1.92;;;6.80;99.90;;;;;;5028966;28;20222;-63
2022/05/03 02:37:23;;;;;;;9.30;2.22;;;6.80;99.90;;;;;;5032827;28;20140;-63
2022/05/03 02:40:02;;;;;;;2.33;1.48;;;6.80;99.90;;;;;;5031739;28;20151;-63
2022/05/03 02:42:29;;;;;;;3.50;1.60;;;6.90;99.90;;;;;;5037392;28;20391;-63
2022/05/03 02:44:59;;;;;;;1.95;1.33;;;6.90;99.90;;;;;;5040825;28;20066;-64
2022/05/03 02:47:34;;;;;;;3.35;1.23;;;6.80;99.90;;;;;;5039465;28;20044;-67
2022/05/03 02:50:14;;;;;;;4.45;1.27;;;6.80;99.90;;;;;;5031832;28;20164;-68
2022/05/03 02:52:58;;;;;;;4.63;1.08;;;6.70;99.90;;;;;;5038496;28;20130;-65
2022/05/03 02:55:55;;;;;;;2.33;1.17;;;6.70;99.90;;;;;;5036629;28;20057;-64
2022/05/03 02:59:01;;;;;;;2.55;0.90;;;6.70;99.90;;;;;;5028581;28;20069;-63
2022/05/03 03:01:56;;;;;;;1.35;1.20;;;6.80;99.90;;;;;;5030172;28;20482;-64
2022/05/03 03:04:37;;;;;;;1.25;0.63;;;6.80;99.90;;;;;;5019801;28;20700;-63
2022/05/03 03:07:05;;;;;;;1.52;0.98;;;6.80;99.90;;;;;;5038142;28;20055;-65
2022/05/03 03:09:46;;;;;;;3.05;1.33;;;6.70;99.90;;;;;;5036168;28;20047;-67
2022/05/03 03:12:40;;;;;;;2.28;1.02;;;6.70;99.90;;;;;;5035512;28;20128;-65
2022/05/03 03:15:09;;;;;;;2.17;1.25;;;6.60;99.90;;;;;;5034479;28;20045;-63
2022/05/03 03:17:41;;;;;;;2.80;1.33;;;6.60;99.90;;;;;;5038665;28;20053;-63
2022/05/03 03:20:09;;;;;;;8.50;1.05;;;6.60;99.90;;;;;;5035885;28;20045;-63
2022/05/03 03:22:44;;;;;;;2.58;0.98;;;6.60;99.90;;;;;;5039334;28;20045;-63
2022/05/03 03:25:13;;;;;;;4.80;1.27;;;6.60;99.90;;;;;;5037579;28;20041;-67
2022/05/03 03:27:42;;;;;;;0.98;0.70;;;6.60;99.90;;;;;;5039318;28;20153;-65
2022/05/03 03:30:12;;;;;;;2.30;1.15;;;6.60;99.90;;;;;;5044343;28;20742;-64
2022/05/03 03:32:42;;;;;;;2.85;0.77;;;6.60;99.90;;;;;;5031852;28;20045;-68
2022/05/03 03:35:13;;;;;;;1.10;0.70;;;6.60;99.90;;;;;;5035483;28;20485;-65
2022/05/03 03:37:44;;;;;;;5.75;0.73;;;6.60;99.90;;;;;;5035268;28;20057;-67
2022/05/03 03:40:13;;;;;;;3.90;0.70;;;6.70;99.90;;;;;;5036360;28;20083;-67
2022/05/03 03:42:44;;;;;;;2.78;1.95;;;6.70;99.90;;;;;;5030860;28;20535;-64
2022/05/03 03:45:16;;;;;;;4.07;0.98;;;6.70;99.90;;;;;;5033774;28;21417;-68
2022/05/03 03:47:45;;;;;;;7.80;1.63;;;6.80;99.90;;;;;;5027586;28;20159;-65
2022/05/03 03:50:12;;;;;;;4.70;1.08;;;6.80;99.90;;;;;;5025515;28;20076;-66
2022/05/03 03:52:42;;;;;;;3.40;0.60;;;6.80;99.90;;;;;;5030530;28;20041;-63
2022/05/03 03:55:10;;;;;;;8.15;1.13;;;6.80;99.90;;;;;;5032165;28;20037;-65
2022/05/03 03:57:38;;;;;;;1.40;0.30;;;6.80;99.90;;;;;;5031740;28;20046;-66
2022/05/03 04:00:08;;;;;;;2.72;0.70;;;6.80;99.90;;;;;;5036131;28;20086;-63
2022/05/03 04:02:42;;;;;;;1.10;0.45;;;6.90;99.90;;;;;;5028091;28;20551;-66
2022/05/03 04:05:18;;;;;;;0.93;0.50;;;6.90;99.90;;;;;;5041604;28;20225;-67
2022/05/03 04:07:45;;;;;;;2.40;0.77;;;6.90;99.90;;;;;;5037555;28;20044;-63
2022/05/03 04:10:13;;;;;;;1.10;0.70;;;6.90;99.90;;;;;;5035620;28;20567;-64
2022/05/03 04:12:42;;;;;;;2.22;0.75;;;6.90;99.90;;;;;;5035321;28;20065;-63
2022/05/03 04:15:09;;;;;;;1.77;0.98;;;6.90;99.90;;;;;;5029233;28;20052;-67
2022/05/03 04:17:42;;;;;;;0.70;0.47;;;6.90;99.90;;;;;;5037064;28;20371;-67
2022/05/03 04:20:12;;;;;;;5.50;1.13;;;6.90;99.90;;;;;;5032414;28;20072;-64
2022/05/03 04:22:39;;;;;;;5.63;0.93;;;7.00;99.90;;;;;;5046443;28;20053;-66
2022/05/03 04:25:06;;;;;;;5.60;1.42;;;7.00;99.90;;;;;;5037302;28;20049;-65
2022/05/03 04:27:33;;;;;;;1.80;0.98;;;7.00;99.90;;;;;;5037185;28;20395;-67
2022/05/03 04:30:01;;;;;;;6.55;1.00;;;7.00;99.90;;;;;;5029196;28;20042;-68
2022/05/03 04:32:29;;;;;;;1.45;0.60;;;7.00;99.90;;;;;;5033696;28;20072;-63
2022/05/03 04:34:57;;;;;;;1.73;1.63;;;7.10;99.90;;;;;;5028445;28;20664;-66
2022/05/03 04:37:24;;;;;;;2.83;0.70;;;7.10;99.90;;;;;;5027278;28;20130;-64
2022/05/03 04:39:51;;;;;;;1.05;0.55;;;7.10;99.90;;;;;;5040484;28;20148;-69
2022/05/03 04:42:19;;;;;;;2.83;0.70;;;7.10;99.90;;;;;;5027322;28;20037;-69
2022/05/03 04:44:46;;;;;;;4.10;1.50;;;7.20;99.90;;;;;;5025627;28;20353;-68
2022/05/03 04:47:13;;;;;;;4.05;0.63;;;7.10;99.90;;;;;;5030255;28;20037;-71
2022/05/03 04:49:40;;;;;;;4.53;0.85;;;7.20;99.90;;;;;;5028212;28;20144;-67
2022/05/03 04:52:07;;;;;;;3.75;0.98;;;7.10;99.90;;;;;;5040278;28;20136;-66
2022/05/03 04:54:37;;;;;;;4.30;1.40;;;7.10;99.90;;;;;;5027249;28;20575;-69
2022/05/03 04:57:09;;;;;;;10.18;1.23;;;7.10;99.90;;;;;;5032597;28;20037;-66
2022/05/03 04:59:38;;;;;;;1.23;0.32;;;7.10;99.90;;;;;;5032260;28;20037;-67
2022/05/03 05:02:05;;;;;;;1.98;0.57;;;7.10;99.90;;;;;;5031590;28;20247;-67
2022/05/03 05:04:32;;;;;;;3.53;0.60;;;7.20;99.90;;;;;;5032163;28;20045;-66
2022/05/03 05:06:59;;;;;;;3.63;0.43;;;7.20;99.90;;;;;;5027121;28;20043;-65
2022/05/03 05:09:26;;;;;;;0.85;0.30;;;7.20;99.90;;;;;;5027621;28;20041;-66
2022/05/03 05:11:52;;;;;;;2.65;0.88;;;7.20;99.90;;;;;;5031830;28;20059;-68
2022/05/03 05:14:20;;;;;;;1.70;1.30;;;7.10;99.90;;;;;;5033533;28;20136;-65
2022/05/03 05:16:51;;;;;;;2.88;0.70;;;7.10;99.90;;;;;;5036447;28;20103;-64
2022/05/03 05:19:18;;;;;;;11.02;1.75;;;7.20;99.90;;;;;;5037591;28;20463;-66
2022/05/03 05:21:46;;;;;;;3.47;0.63;;;7.20;99.90;;;;;;5035871;28;20168;-64
2022/05/03 05:24:13;;;;;;;2.55;2.00;;;7.10;99.90;;;;;;5032166;28;20110;-67
2022/05/03 05:26:41;;;;;;;2.97;0.73;;;7.10;99.90;;;;;;5037408;28;20040;-65
2022/05/03 05:29:09;;;;;;;4.90;0.80;;;7.10;99.90;;;;;;5030096;28;20053;-69
2022/05/03 05:31:36;;;;;;;6.15;1.50;;;7.10;99.90;;;;;;5029364;28;20657;-64
2022/05/03 05:34:03;;;;;;;1.27;0.50;;;7.00;99.90;;;;;;5034753;28;20045;-68
2022/05/03 05:36:30;;;;;;;2.25;0.60;;;7.00;99.90;;;;;;5032864;28;20124;-65
2022/05/03 05:38:58;;;;;;;3.75;1.35;;;6.90;99.90;;;;;;5027924;28;20146;-65
2022/05/03 05:41:25;;;;;;;3.30;0.80;;;6.90;99.90;;;;;;5035663;28;20132;-66
2022/05/03 05:43:52;;;;;;;2.00;0.77;;;6.90;99.90;;;;;;5034216;28;20076;-67
2022/05/03 05:46:19;;;;;;;3.72;1.02;;;6.90;99.90;;;;;;5035658;28;20040;-68
2022/05/03 05:48:46;;;;;;;0.60;0.45;;;6.90;99.90;;;;;;5037665;28;20040;-65
2022/05/03 05:51:14;;;;;;;3.72;0.35;;;6.80;99.90;;;;;;5029930;28;20328;-70
2022/05/03 05:53:41;;;;;;;4.30;1.65;;;6.80;99.90;;;;;;5023772;28;20041;-66
2022/05/03 05:56:09;;;;;;;3.78;0.55;;;6.90;99.90;;;;;;5041235;28;20139;-66
2022/05/03 05:58:37;;;;;;;6.72;1.02;;;6.90;99.90;;;;;;5035266;28;20148;-69
2022/05/03 06:01:04;;;;;;;2.75;0.52;;;6.90;99.90;;;;;;5029630;28;20415;-66
2022/05/03 06:03:34;;;;;;;2.05;1.20;;;6.90;99.90;;;;;;5028641;28;20047;-65
2022/05/03 06:06:01;;;;;;;0.82;0.40;;;6.90;99.90;;;;;;5033414;28;20041;-63
2022/05/03 06:08:28;;;;;;;3.83;0.88;;;6.90;99.90;;;;;;5037831;28;20239;-64
2022/05/03 06:10:58;;;;;;;5.05;0.75;;;6.90;99.90;;;;;;5039462;28;20045;-63
2022/05/03 06:13:25;;;;;;;4.75;1.25;;;6.90;99.90;;;;;;5035063;28;20037;-66
2022/05/03 06:15:54;;;;;;;2.03;0.90;;;6.90;99.90;;;;;;5037826;28;20049;-65
2022/05/03 06:18:22;;;;;;;3.90;0.75;;;6.90;99.90;;;;;;5036291;28;20037;-63
2022/05/03 06:20:50;;;;;;;0.70;0.32;;;6.90;99.90;;;;;;5024662;28;20133;-66
2022/05/03 06:23:17;;;;;;;3.60;1.27;;;7.00;99.90;;;;;;5039301;28;21027;-66
2022/05/03 06:25:44;;;;;;;0.98;0.63;;;6.90;99.90;;;;;;5031036;28;20048;-65
2022/05/03 06:28:11;;;;;;;3.80;1.10;;;6.90;99.90;;;;;;5032743;28;20067;-67
2022/05/03 06:30:40;;;;;;;2.85;0.90;;;7.00;99.90;;;;;;5038550;28;20071;-65
2022/05/03 06:33:06;;;;;;;7.13;1.02;;;7.00;99.90;;;;;;5026697;28;20495;-64
2022/05/03 06:35:33;;;;;;;2.05;0.68;;;7.00;99.90;;;;;;5027555;28;20075;-68
2022/05/03 06:38:00;;;;;;;1.23;0.50;;;7.00;99.90;;;;;;5051482;28;20451;-63
2022/05/03 06:40:27;;;;;;;1.05;0.60;;;7.00;99.90;;;;;;5033826;28;20400;-64
2022/05/03 06:42:54;;;;;;;4.43;1.13;;;7.00;99.90;;;;;;5034897;28;20051;-67
2022/05/03 06:45:22;;;;;;;2.15;0.77;;;7.00;99.90;;;;;;5036466;28;20056;-63
2022/05/03 06:47:49;;;;;;;0.85;0.40;;;7.00;99.90;;;;;;5034614;28;20052;-67
2022/05/03 06:50:17;;;;;;;6.35;1.20;;;7.00;99.90;;;;;;5022106;28;20050;-67
2022/05/03 06:52:44;;;;;;;2.30;0.50;;;7.00;99.90;;;;;;5025754;28;20102;-65
2022/05/03 06:55:11;;;;;;;1.17;0.90;;;7.00;99.90;;;;;;5023454;28;20484;-65
2022/05/03 06:57:39;;;;;;;4.35;0.80;;;7.00;99.90;;;;;;5024351;28;20041;-68
2022/05/03 07:00:08;;;;;;;0.73;0.50;;;7.00;99.90;;;;;;5025339;28;20049;-65
2022/05/03 07:02:35;;;;;;;2.42;0.60;;;7.00;99.90;;;;;;5029670;28;20052;-66
2022/05/03 07:05:04;;;;;;;4.85;1.13;;;6.90;99.90;;;;;;5034447;28;20040;-64
2022/05/03 07:07:31;;;;;;;3.10;0.55;;;6.90;99.90;;;;;;5034034;28;20076;-67
2022/05/03 07:09:59;;;;;;;2.85;0.80;;;6.90;99.90;;;;;;5030415;28;20045;-63
2022/05/03 07:12:27;;;;;;;2.38;0.80;;;6.80;99.90;;;;;;5032361;28;20628;-63
2022/05/03 07:15:01;;;;;;;2.28;1.45;;;6.90;99.90;;;;;;5036013;28;20149;-64
2022/05/03 07:22:59;;;;;;;4.05;1.17;;;7.00;99.90;;;;;;5034707;28;20466;-63
2022/05/03 07:25:26;;;;;;;3.58;1.23;;;6.90;99.90;;;;;;5028898;28;20037;-63
2022/05/03 07:27:53;;;;;;;9.18;0.93;;;6.90;99.90;;;;;;5027067;28;20140;-65
2022/05/03 07:30:21;;;;;;;2.42;0.82;;;7.00;99.90;;;;;;5032436;28;20037;-63
2022/05/03 07:32:48;;;;;;;4.32;0.73;;;7.00;99.90;;;;;;5036058;28;20049;-63
2022/05/03 07:35:15;;;;;;;3.03;0.82;;;7.10;99.90;;;;;;5026696;28;20069;-64
2022/05/03 07:37:43;;;;;;;4.78;0.75;;;7.10;99.90;;;;;;5044415;28;20106;-65
2022/05/03 07:40:11;;;;;;;7.50;1.45;;;7.10;99.90;;;;;;5027923;28;20700;-64
2022/05/03 07:42:38;;;;;;;2.28;0.90;;;7.10;99.90;;;;;;5040581;28;20399;-66
2022/05/03 07:45:05;;;;;;;2.63;0.80;;;7.10;99.90;;;;;;5025914;28;20170;-66
2022/05/03 07:47:32;;;;;;;4.15;1.10;;;7.00;99.90;;;;;;5036944;28;20065;-65
2022/05/03 07:49:59;;;;;;;3.53;0.80;;;7.10;99.90;;;;;;5044349;28;20048;-66
2022/05/03 07:52:27;;;;;;;5.18;1.35;;;7.10;99.90;;;;;;5037810;28;20453;-67
2022/05/03 07:54:55;;;;;;;3.67;1.08;;;7.10;99.90;;;;;;5026014;28;20140;-65
2022/05/03 07:57:22;;;;;;;4.07;0.70;;;7.20;99.90;;;;;;5040445;28;20132;-65
2022/05/03 07:59:50;;;;;;;5.03;1.05;;;7.20;99.90;;;;;;5038794;28;20047;-64
2022/05/03 08:02:17;;;;;;;4.35;1.08;;;7.20;99.90;;;;;;5035923;28;20083;-65
2022/05/03 08:04:44;;;;;;;2.22;0.70;;;7.20;99.90;;;;;;5033102;28;20065;-66
2022/05/03 08:07:11;;;;;;;4.60;0.88;;;7.20;99.90;;;;;;5031552;28;20079;-65
2022/05/03 08:09:38;;;;;;;4.13;1.08;;;7.20;99.90;;;;;;5033214;28;20128;-66
2022/05/03 08:12:05;;;;;;;3.22;1.00;;;7.30;99.90;;;;;;5030805;28;20052;-69
2022/05/03 08:14:32;;;;;;;2.50;0.82;;;7.20;99.90;;;;;;5025274;28;20129;-65
2022/05/03 08:17:01;;;;;;;4.95;0.80;;;7.20;99.90;;;;;;5029071;28;20037;-66
2022/05/03 08:19:29;;;;;;;10.43;2.75;;;7.20;99.90;;;;;;5026746;28;20041;-66
2022/05/03 08:21:56;;;;;;;2.15;0.60;;;7.30;99.90;;;;;;5030840;28;20060;-64
2022/05/03 08:24:27;;;;;;;3.67;0.88;;;7.30;99.90;;;;;;5032730;28;20068;-63
2022/05/03 08:26:54;;;;;;;4.72;1.35;;;7.30;99.90;;;;;;5036479;28;20460;-65
2022/05/03 08:29:21;;;;;;;3.53;1.50;;;7.30;99.90;;;;;;5030548;28;20137;-62
2022/05/03 08:31:48;;;;;;;3.17;0.63;;;7.30;99.90;;;;;;5042128;28;20128;-63
2022/05/03 08:34:15;;;;;;;5.57;1.00;;;7.30;99.90;;;;;;5042695;28;20045;-67
2022/05/03 08:42:01;;;;;;;5.53;0.60;;;7.30;99.90;;;;;;5043087;28;20407;-66
2022/05/03 08:42:16;;;;;;;2.13;0.60;;;7.40;99.90;;;;;;5034632;28;20041;-65
2022/05/03 08:44:43;;;;;;;1.92;0.95;;;7.50;99.90;;;;;;5039244;28;20497;-66
2022/05/03 08:47:10;;;;;;;3.28;1.23;;;7.50;99.90;;;;;;5035407;28;20081;-64
2022/05/03 08:49:55;;;;;;;4.03;0.90;;;7.40;99.90;;;;;;5035081;28;20107;-64
2022/05/03 08:52:24;;;;;;;7.30;1.85;;;7.50;99.90;;;;;;5027044;28;20059;-65
2022/05/03 08:54:51;;;;;;;2.47;1.35;;;7.50;99.90;;;;;;5031771;28;20137;-65
2022/05/03 08:57:18;;;;;;;3.03;0.77;;;7.60;99.90;;;;;;5033319;28;20042;-67
2022/05/03 08:59:48;;;;;;;2.42;1.13;;;7.60;99.90;;;;;;5042541;28;20248;-66
2022/05/03 09:02:15;;;;;;;4.85;0.60;;;7.60;99.90;;;;;;5036635;28;20511;-66
2022/05/03 09:04:43;;;;;;;3.15;1.13;;;7.60;99.90;;;;;;5035790;28;20048;-64
2022/05/03 09:07:21;;;;;;;2.72;0.80;;;7.60;99.90;;;;;;5029972;28;20119;-68
2022/05/03 09:09:49;;;;;;;4.80;1.23;;;7.30;99.90;;;;;;5038586;28;20072;-64
2022/05/03 09:12:32;;;;;;;3.63;0.85;;;7.40;99.90;;;;;;5039010;28;20085;-63
2022/05/03 09:15:01;;;;;;;4.10;0.82;;;7.50;99.90;;;;;;5036857;28;20103;-66
2022/05/03 09:17:37;;;;;;;4.22;1.65;;;7.60;99.90;;;;;;5036524;28;20223;-64
2022/05/03 09:26:14;;;;;;;4.28;1.88;;;7.80;99.90;;;;;;5035447;28;20102;-64
2022/05/03 09:29:00;;;;;;;7.78;1.33;;;7.90;99.90;;;;;;5035474;28;20044;-66
2022/05/03 09:32:00;;;;;;;6.60;1.00;;;7.60;99.90;;;;;;5033018;28;20128;-63
2022/05/03 09:34:27;;;;;;;7.13;1.10;;;7.60;99.90;;;;;;5001273;28;20434;-63
2022/05/03 09:37:09;;;;;;;6.90;1.23;;;7.60;99.90;;;;;;5038670;28;20086;-66
2022/05/03 09:39:46;;;;;;;4.40;1.10;;;7.70;99.90;;;;;;5037756;28;20076;-65
2022/05/03 09:42:20;;;;;;;4.47;1.83;;;7.80;99.90;;;;;;5044198;28;20398;-65
2022/05/03 09:44:50;;;;;;;1.98;1.00;;;7.90;99.90;;;;;;5033927;28;20618;-66
2022/05/03 09:47:20;;;;;;;5.07;0.93;;;8.00;99.90;;;;;;5030897;28;20051;-66
2022/05/03 09:49:47;;;;;;;1.20;0.90;;;8.10;99.90;;;;;;5036998;28;20041;-64
2022/05/03 09:52:36;;;;;;;4.18;1.35;;;8.10;99.90;;;;;;5031199;28;20283;-66
2022/05/03 09:55:11;;;;;;;2.40;0.85;;;7.90;99.90;;;;;;5037755;28;20132;-68
2022/05/03 09:57:43;;;;;;;3.67;0.85;;;7.70;99.90;;;;;;5028504;28;20123;-65
2022/05/03 10:00:12;;;;;;;6.50;0.98;;;7.70;99.90;;;;;;5026300;28;20037;-64
2022/05/03 10:02:42;;;;;;;6.07;0.80;;;7.80;99.90;;;;;;5030331;28;20041;-66
2022/05/03 10:05:15;;;;;;;1.30;0.52;;;7.80;99.90;;;;;;5039783;28;20444;-68
2022/05/03 10:07:46;;;;;;;3.28;1.83;;;7.70;99.90;;;;;;5024845;28;20371;-67
2022/05/03 10:10:14;;;;;;;2.40;1.25;;;7.80;99.90;;;;;;5031609;28;20048;-64
2022/05/03 10:12:46;;;;;;;2.63;0.75;;;7.80;99.90;;;;;;5043696;28;20604;-63
2022/05/03 10:20:35;;;;;;;5.68;1.02;;;7.90;99.90;;;;;;5036470;28;20047;-70
2022/05/03 10:20:50;;;;;;;4.15;0.82;;;8.10;99.90;;;;;;5031053;28;20120;-63
2022/05/03 10:23:25;;;;;;;2.83;0.75;;;8.20;99.90;;;;;;5027714;28;20107;-63
2022/05/03 10:26:05;;;;;;;4.50;1.35;;;8.10;99.90;;;;;;5022139;28;20841;-64
2022/05/03 10:29:06;;;;;;;2.67;1.25;;;8.00;99.90;;;;;;5042853;28;20457;-67
2022/05/03 10:31:55;;;;;;;2.28;0.70;;;8.30;99.90;;;;;;5002230;28;20141;-69
2022/05/03 10:34:46;;;;;;;5.20;1.48;;;8.40;99.90;;;;;;5003285;28;20038;-67
2022/05/03 10:37:17;;;;;;;4.80;0.98;;;8.40;99.90;;;;;;5010127;28;20041;-66
2022/05/03 10:39:51;;;;;;;4.97;1.25;;;8.50;99.90;;;;;;5010905;28;20168;-67
2022/05/03 10:42:25;;;;;;;3.63;1.02;;;8.50;99.90;;;;;;5007260;28;20072;-71
2022/05/03 10:44:52;;;;;;;4.65;1.00;;;8.70;99.90;;;;;;5009761;28;20050;-65
2022/05/03 10:47:38;;;;;;;1.27;0.52;;;8.60;99.90;;;;;;5006202;28;20050;-70
2022/05/03 10:50:12;;;;;;;4.47;1.15;;;8.40;99.90;;;;;;5011477;28;20037;-65
2022/05/03 10:52:42;;;;;;;2.90;0.77;;;8.30;99.90;;;;;;5008492;28;20043;-67
2022/05/03 10:55:12;;;;;;;3.20;0.93;;;8.40;99.90;;;;;;5006092;28;20126;-67
2022/05/03 10:58:20;;;;;;;3.90;1.00;;;8.30;99.90;;;;;;5004053;28;20722;-70
2022/05/03 11:01:19;;;;;;;1.90;1.00;;;8.30;99.90;;;;;;5005034;28;20135;-64
2022/05/03 11:03:47;;;;;;;5.95;1.27;;;8.40;99.90;;;;;;5007553;28;20442;-64
2022/05/03 11:06:26;;;;;;;1.73;1.10;;;8.50;99.90;;;;;;5006668;28;20053;-68
2022/05/03 11:09:08;;;;;;;2.30;1.98;;;8.50;99.90;;;;;;5011757;28;20089;-65
2022/05/03 11:11:38;;;;;;;4.60;0.93;;;8.30;99.90;;;;;;5009685;28;20457;-69
2022/05/03 11:14:15;;;;;;;2.15;0.80;;;8.00;99.90;;;;;;5014426;28;20115;-70
2022/05/03 11:16:43;;;;;;;5.22;1.63;;;8.30;99.90;;;;;;5007183;28;20051;-69
2022/05/03 11:19:15;;;;;;;2.10;0.80;;;8.50;99.90;;;;;;4999627;28;20855;-68
2022/05/03 11:21:47;;;;;;;2.13;1.08;;;8.50;99.90;;;;;;5000759;28;20056;-67
2022/05/03 11:24:22;;;;;;;0.90;0.75;;;8.60;99.90;;;;;;5000371;28;20044;-68
2022/05/03 11:26:51;;;;;;;1.42;0.93;;;8.60;99.90;;;;;;5001957;28;20132;-66
2022/05/03 11:29:19;;;;;;;3.27;1.33;;;8.40;99.90;;;;;;5008223;28;20128;-65
2022/05/03 11:31:50;;;;;;;2.10;0.73;;;8.50;99.90;;;;;;5013974;28;20140;-64
2022/05/03 11:34:18;;;;;;;4.22;1.30;;;8.70;99.90;;;;;;5014702;28;20131;-69
2022/05/03 11:36:48;;;;;;;2.30;0.50;;;8.70;99.90;;;;;;5014291;28;20049;-64
2022/05/03 11:39:15;;;;;;;8.80;2.50;;;8.80;99.90;;;;;;4996589;28;20114;-66
2022/05/03 11:41:42;;;;;;;4.80;2.13;;;8.90;99.90;;;;;;4998865;28;20157;-66
2022/05/03 11:44:10;;;;;;;4.57;1.02;;;9.00;99.90;;;;;;4988219;28;20141;-67
2022/05/03 11:46:38;;;;;;;2.15;0.77;;;9.10;99.90;;;;;;4998530;28;20078;-68
2022/05/03 11:49:06;;;;;;;1.52;0.93;;;9.00;99.90;;;;;;4995326;28;20050;-66
2022/05/03 11:57:21;;;;;;;2.58;1.05;;;8.70;99.90;;;;;;4989696;28;20069;-66
2022/05/03 11:59:50;;;;;;;1.60;0.60;;;8.90;99.90;;;;;;5004455;28;20512;-67
2022/05/03 12:02:33;;;;;;;6.07;0.70;;;9.00;99.40;;;;;;5002906;28;20050;-65
2022/05/03 12:05:12;;;;;;;2.63;0.70;;;9.00;97.00;;;;;;5005815;28;20734;-64
2022/05/03 12:07:51;;;;;;;2.07;0.77;;;8.70;97.80;;;;;;4992922;28;20070;-71
2022/05/03 12:10:27;;;;;;;2.47;0.93;;;8.70;99.40;;;;;;5002588;28;20038;-64
2022/05/03 12:13:16;;;;;;;2.47;0.60;;;8.60;99.00;;;;;;4999676;28;20058;-70
2022/05/03 12:16:06;;;;;;;2.90;1.15;;;8.40;98.50;;;;;;4999774;28;20176;-65
2022/05/03 12:18:35;;;;;;;1.17;0.82;;;8.10;98.20;;;;;;4996114;28;20082;-65
2022/05/03 12:21:11;;;;;;;2.47;0.90;;;8.40;98.60;;;;;;5003628;28;20133;-67
2022/05/03 12:23:50;;;;;;;2.72;0.82;;;8.40;97.60;;;;;;4996995;28;20621;-64
2022/05/03 12:26:22;;;;;;;3.47;0.60;;;8.70;96.80;;;;;;4984877;28;20074;-64
2022/05/03 12:28:58;;;;;;;3.40;0.82;;;8.90;96.60;;;;;;5000414;28;20104;-67
2022/05/03 12:31:36;;;;;;;1.77;0.85;;;9.20;93.40;;;;;;4995255;28;20076;-64
2022/05/03 12:34:11;;;;;;;3.05;0.60;;;9.50;92.20;;;;;;4999984;28;20062;-66
2022/05/03 12:36:46;;;;;;;2.83;0.75;;;9.60;91.10;;;;;;5011013;28;20049;-64
2022/05/03 12:39:23;;;;;;;1.95;0.63;;;9.70;90.40;;;;;;4993738;28;20050;-66
2022/05/03 12:42:02;;;;;;;2.05;0.30;;;9.80;87.10;;;;;;4996665;28;20065;-67
2022/05/03 12:44:30;;;;;;;1.20;0.50;;;9.70;82.60;;;;;;5006853;28;20127;-70
2022/05/03 12:47:06;;;;;;;4.22;0.80;;;9.80;86.50;;;;;;4996421;28;20042;-67
2022/05/03 12:49:34;;;;;;;6.05;0.88;;;9.90;86.10;;;;;;4996599;28;20049;-65
2022/05/03 12:52:01;;;;;;;3.17;0.65;;;10.10;84.80;;;;;;5007760;28;20112;-63
2022/05/03 12:54:31;;;;;;;;;;;10.20;80.00;;;;;;4987714;28;20536;-65
2022/05/03 12:59:44;;;;;;;2.97;1.33;;;10.30;82.00;;;;;;4985880;28;20038;-63
2022/05/03 13:02:11;;;;;;;1.33;0.40;;;10.30;76.00;;;;;;5000572;28;20137;-68
2022/05/03 13:04:38;;;;;;;4.65;1.23;;;9.90;76.60;;;;;;4989405;28;20044;-64
2022/05/03 13:07:05;;;;;;;2.85;0.80;;;10.10;79.50;;;;;;4998300;28;20148;-66
2022/05/03 13:09:32;;;;;;;2.78;0.70;;;10.20;76.00;;;;;;4999371;28;20096;-66
2022/05/03 13:11:59;;;;;;;4.15;1.08;;;10.20;73.10;;;;;;5002115;28;20453;-64
2022/05/03 13:14:26;;;;;;;1.10;0.50;;;10.50;75.10;;;;;;5001692;28;20137;-64
2022/05/03 13:16:54;;;;;;;2.70;0.70;;;10.60;72.70;;;;;;4991522;28;20039;-69
2022/05/03 13:19:21;;;;;;;2.90;0.63;;;10.80;71.50;;;;;;4993265;28;20069;-69
2022/05/03 13:21:48;;;;;;;1.08;0.73;;;10.90;70.70;;;;;;4995776;28;20054;-65
2022/05/03 13:24:16;;;;;;;0.65;0.17;;;11.10;68.80;;;;;;5007914;28;20137;-68
2022/05/03 13:26:43;;;;;;;1.88;0.60;;;11.20;68.00;;;;;;4989342;28;20160;-66
2022/05/03 13:29:13;;;;;;;1.85;0.50;;;11.20;68.90;;;;;;5002660;28;20042;-67
2022/05/03 13:31:40;;;;;;;5.05;1.13;;;11.30;65.80;;;;;;5001645;28;20599;-68
2022/05/03 13:34:08;;;;;;;2.53;0.50;;;11.40;66.70;;;;;;5000503;28;20052;-65
2022/05/03 13:42:07;;;;;;;1.95;1.17;;;11.70;61.80;;;;;;4996389;28;20081;-68
2022/05/03 13:44:35;;;;;;;1.95;0.50;;;11.40;61.30;;;;;;4999999;28;20104;-64
2022/05/03 13:47:04;;;;;;;1.55;0.73;;;11.50;62.50;;;;;;4998709;28;20041;-65
2022/05/03 13:49:31;;;;;;;1.17;0.50;;;11.20;62.80;;;;;;4994444;28;20100;-67
2022/05/03 13:51:58;;;;;;;3.00;0.50;;;11.50;61.40;;;;;;4993358;28;20153;-68
2022/05/03 13:54:26;;;;;;;7.78;1.55;;;11.60;61.70;;;;;;4994768;28;20796;-65
2022/05/03 13:56:53;;;;;;;1.27;0.52;;;11.70;59.90;;;;;;4989417;28;20128;-65
2022/05/03 13:59:20;;;;;;;2.00;0.65;;;11.90;60.40;;;;;;4995972;28;20034;-64
2022/05/03 14:01:48;;;;;;;2.13;0.40;;;11.90;58.20;;;;;;5000940;28;20497;-65